sensor_id;sensor_type;location;lat;lon;timestamp;P1;durP1;ratioP1;P2;durP2;ratioP2
36797;SDS011;22748;8.426;99.512;2024-03-23T00:55:22;34.85;;;25.50;;
36797;SDS011;22748;8.426;99.512;2024-03-23T00:58:05;41.80;;;25.85;;
36797;SDS011;22748;8.426;99.512;2024-03-23T01:00:45;42.75;;;27.90;;
36797;SDS011;22748;8.426;99.512;2024-03-23T01:03:13;38.10;;;26.17;;
36797;SDS011;22748;8.426;99.512;2024-03-23T01:06:03;38.85;;;25.30;;
36797;SDS011;22748;8.426;99.512;2024-03-23T01:08:39;30.30;;;21.95;;
36797;SDS011;22748;8.426;99.512;2024-03-23T01:11:07;34.13;;;20.13;;
36797;SDS011;22748;8.426;99.512;2024-03-23T01:13:37;35.45;;;19.65;;
36797;SDS011;22748;8.426;99.512;2024-03-23T01:16:06;33.85;;;20.27;;
36797;SDS011;22748;8.426;99.512;2024-03-23T01:18:36;50.80;;;19.00;;
36797;SDS011;22748;8.426;99.512;2024-03-23T01:26:52;28.02;;;18.00;;
36797;SDS011;22748;8.426;99.512;2024-03-23T01:29:23;23.73;;;17.05;;
36797;SDS011;22748;8.426;99.512;2024-03-23T01:31:52;24.33;;;17.52;;
36797;SDS011;22748;8.426;99.512;2024-03-23T01:34:22;23.77;;;18.20;;
36797;SDS011;22748;8.426;99.512;2024-03-23T01:36:51;25.40;;;18.00;;
36797;SDS011;22748;8.426;99.512;2024-03-23T01:39:22;26.38;;;17.48;;
36797;SDS011;22748;8.426;99.512;2024-03-23T01:41:58;26.20;;;16.98;;
36797;SDS011;22748;8.426;99.512;2024-03-23T01:44:28;31.40;;;17.38;;
36797;SDS011;22748;8.426;99.512;2024-03-23T01:46:57;25.45;;;17.13;;
36797;SDS011;22748;8.426;99.512;2024-03-23T01:49:27;27.80;;;17.52;;
36797;SDS011;22748;8.426;99.512;2024-03-23T01:51:56;25.95;;;16.55;;
36797;SDS011;22748;8.426;99.512;2024-03-23T01:54:26;26.13;;;16.58;;
36797;SDS011;22748;8.426;99.512;2024-03-23T01:57:01;28.25;;;16.25;;
36797;SDS011;22748;8.426;99.512;2024-03-23T01:59:33;21.98;;;16.27;;
36797;SDS011;22748;8.426;99.512;2024-03-23T02:02:01;25.45;;;16.13;;
36797;SDS011;22748;8.426;99.512;2024-03-23T02:04:32;29.83;;;17.60;;
36797;SDS011;22748;8.426;99.512;2024-03-23T02:07:00;25.88;;;16.50;;
36797;SDS011;22748;8.426;99.512;2024-03-23T02:12:01;26.63;;;15.90;;
36797;SDS011;22748;8.426;99.512;2024-03-23T02:14:32;24.15;;;14.77;;
36797;SDS011;22748;8.426;99.512;2024-03-23T02:17:01;25.95;;;14.38;;
36797;SDS011;22748;8.426;99.512;2024-03-23T02:19:31;27.57;;;14.13;;
36797;SDS011;22748;8.426;99.512;2024-03-23T02:21:59;23.48;;;14.13;;
36797;SDS011;22748;8.426;99.512;2024-03-23T02:24:36;18.42;;;12.95;;
36797;SDS011;22748;8.426;99.512;2024-03-23T02:27:05;20.05;;;13.25;;
36797;SDS011;22748;8.426;99.512;2024-03-23T02:29:35;18.00;;;13.30;;
36797;SDS011;22748;8.426;99.512;2024-03-23T02:32:03;16.90;;;12.75;;
36797;SDS011;22748;8.426;99.512;2024-03-23T02:34:36;25.80;;;13.90;;
36797;SDS011;22748;8.426;99.512;2024-03-23T02:37:10;19.63;;;12.73;;
36797;SDS011;22748;8.426;99.512;2024-03-23T02:39:47;20.80;;;12.98;;
36797;SDS011;22748;8.426;99.512;2024-03-23T02:42:15;19.15;;;12.98;;
36797;SDS011;22748;8.426;99.512;2024-03-23T02:44:46;22.48;;;12.85;;
36797;SDS011;22748;8.426;99.512;2024-03-23T02:47:15;19.98;;;12.70;;
36797;SDS011;22748;8.426;99.512;2024-03-23T02:49:45;20.80;;;12.63;;
36797;SDS011;22748;8.426;99.512;2024-03-23T02:52:14;17.45;;;13.70;;
36797;SDS011;22748;8.426;99.512;2024-03-23T02:54:51;16.35;;;12.93;;
36797;SDS011;22748;8.426;99.512;2024-03-23T02:57:20;19.50;;;13.32;;
36797;SDS011;22748;8.426;99.512;2024-03-23T02:59:50;25.80;;;13.07;;
36797;SDS011;22748;8.426;99.512;2024-03-23T03:02:20;17.70;;;13.77;;
36797;SDS011;22748;8.426;99.512;2024-03-23T03:04:50;18.42;;;13.40;;
36797;SDS011;22748;8.426;99.512;2024-03-23T03:07:19;19.08;;;13.02;;
36797;SDS011;22748;8.426;99.512;2024-03-23T03:09:52;19.88;;;13.68;;
36797;SDS011;22748;8.426;99.512;2024-03-23T03:14:49;18.02;;;13.27;;
36797;SDS011;22748;8.426;99.512;2024-03-23T03:17:17;21.45;;;12.95;;
36797;SDS011;22748;8.426;99.512;2024-03-23T03:19:48;21.90;;;12.65;;
36797;SDS011;22748;8.426;99.512;2024-03-23T03:22:16;19.77;;;13.40;;
36797;SDS011;22748;8.426;99.512;2024-03-23T03:24:47;14.40;;;11.93;;
36797;SDS011;22748;8.426;99.512;2024-03-23T03:27:18;14.32;;;12.52;;
36797;SDS011;22748;8.426;99.512;2024-03-23T03:29:49;19.95;;;11.88;;
36797;SDS011;22748;8.426;99.512;2024-03-23T03:32:17;12.93;;;11.57;;
36797;SDS011;22748;8.426;99.512;2024-03-23T03:34:48;15.73;;;12.43;;
36797;SDS011;22748;8.426;99.512;2024-03-23T03:37:17;17.08;;;12.73;;
36797;SDS011;22748;8.426;99.512;2024-03-23T03:39:47;17.73;;;12.82;;
36797;SDS011;22748;8.426;99.512;2024-03-23T03:42:15;17.83;;;12.18;;
36797;SDS011;22748;8.426;99.512;2024-03-23T03:44:52;17.03;;;12.30;;
36797;SDS011;22748;8.426;99.512;2024-03-23T03:47:20;15.63;;;11.98;;
36797;SDS011;22748;8.426;99.512;2024-03-23T03:49:50;17.95;;;12.05;;
36797;SDS011;22748;8.426;99.512;2024-03-23T03:52:19;17.17;;;11.73;;
36797;SDS011;22748;8.426;99.512;2024-03-23T03:54:49;18.30;;;12.65;;
36797;SDS011;22748;8.426;99.512;2024-03-23T03:57:17;21.38;;;13.10;;
36797;SDS011;22748;8.426;99.512;2024-03-23T03:59:54;19.38;;;12.23;;
36797;SDS011;22748;8.426;99.512;2024-03-23T04:02:22;19.27;;;11.57;;
36797;SDS011;22748;8.426;99.512;2024-03-23T04:07:55;13.88;;;11.48;;
36797;SDS011;22748;8.426;99.512;2024-03-23T04:10:24;15.07;;;10.75;;
36797;SDS011;22748;8.426;99.512;2024-03-23T04:12:52;14.85;;;11.57;;
36797;SDS011;22748;8.426;99.512;2024-03-23T04:15:27;14.48;;;11.52;;
36797;SDS011;22748;8.426;99.512;2024-03-23T04:17:55;15.48;;;11.20;;
36797;SDS011;22748;8.426;99.512;2024-03-23T04:20:24;15.80;;;11.55;;
36797;SDS011;22748;8.426;99.512;2024-03-23T04:22:52;30.77;;;19.52;;
36797;SDS011;22748;8.426;99.512;2024-03-23T04:25:21;21.75;;;13.48;;
36797;SDS011;22748;8.426;99.512;2024-03-23T04:27:49;15.98;;;13.57;;
36797;SDS011;22748;8.426;99.512;2024-03-23T04:30:18;55.25;;;36.53;;
36797;SDS011;22748;8.426;99.512;2024-03-23T04:32:52;19.27;;;13.77;;
36797;SDS011;22748;8.426;99.512;2024-03-23T04:35:23;23.30;;;13.52;;
36797;SDS011;22748;8.426;99.512;2024-03-23T04:37:51;18.17;;;13.77;;
36797;SDS011;22748;8.426;99.512;2024-03-23T04:40:21;18.02;;;12.07;;
36797;SDS011;22748;8.426;99.512;2024-03-23T04:42:51;16.33;;;11.75;;
36797;SDS011;22748;8.426;99.512;2024-03-23T04:45:20;20.35;;;12.98;;
36797;SDS011;22748;8.426;99.512;2024-03-23T04:47:55;18.65;;;13.25;;
36797;SDS011;22748;8.426;99.512;2024-03-23T04:50:24;15.13;;;11.88;;
36797;SDS011;22748;8.426;99.512;2024-03-23T04:52:54;16.70;;;12.85;;
36797;SDS011;22748;8.426;99.512;2024-03-23T04:55:23;15.75;;;12.90;;
36797;SDS011;22748;8.426;99.512;2024-03-23T04:57:52;19.83;;;14.27;;
36797;SDS011;22748;8.426;99.512;2024-03-23T05:00:20;20.67;;;13.90;;
36797;SDS011;22748;8.426;99.512;2024-03-23T05:02:55;21.92;;;14.05;;
36797;SDS011;22748;8.426;99.512;2024-03-23T05:05:23;22.13;;;14.20;;
36797;SDS011;22748;8.426;99.512;2024-03-23T05:07:52;17.23;;;13.70;;
36797;SDS011;22748;8.426;99.512;2024-03-23T05:10:20;18.20;;;13.55;;
36797;SDS011;22748;8.426;99.512;2024-03-23T05:12:49;19.13;;;13.93;;
36797;SDS011;22748;8.426;99.512;2024-03-23T05:15:17;15.98;;;14.27;;
36797;SDS011;22748;8.426;99.512;2024-03-23T05:17:47;18.23;;;13.13;;
36797;SDS011;22748;8.426;99.512;2024-03-23T05:20:20;19.63;;;14.65;;
36797;SDS011;22748;8.426;99.512;2024-03-23T05:22:50;18.02;;;14.07;;
36797;SDS011;22748;8.426;99.512;2024-03-23T05:25:17;18.88;;;15.10;;
36797;SDS011;22748;8.426;99.512;2024-03-23T05:27:46;22.13;;;14.60;;
36797;SDS011;22748;8.426;99.512;2024-03-23T05:30:14;18.75;;;12.93;;
36797;SDS011;22748;8.426;99.512;2024-03-23T05:32:43;20.58;;;13.95;;
36797;SDS011;22748;8.426;99.512;2024-03-23T05:35:13;20.55;;;14.60;;
36797;SDS011;22748;8.426;99.512;2024-03-23T05:37:47;16.08;;;13.70;;
36797;SDS011;22748;8.426;99.512;2024-03-23T05:40:16;16.35;;;13.57;;
36797;SDS011;22748;8.426;99.512;2024-03-23T05:42:44;18.55;;;14.45;;
36797;SDS011;22748;8.426;99.512;2024-03-23T05:45:15;19.20;;;13.40;;
36797;SDS011;22748;8.426;99.512;2024-03-23T05:47:45;16.10;;;14.35;;
36797;SDS011;22748;8.426;99.512;2024-03-23T05:50:14;20.90;;;13.80;;
36797;SDS011;22748;8.426;99.512;2024-03-23T05:52:48;14.65;;;13.18;;
36797;SDS011;22748;8.426;99.512;2024-03-23T05:55:18;16.90;;;14.10;;
36797;SDS011;22748;8.426;99.512;2024-03-23T05:57:46;18.10;;;13.88;;
36797;SDS011;22748;8.426;99.512;2024-03-23T06:00:15;16.45;;;14.55;;
36797;SDS011;22748;8.426;99.512;2024-03-23T06:02:43;18.75;;;13.57;;
36797;SDS011;22748;8.426;99.512;2024-03-23T06:05:13;19.70;;;14.10;;
36797;SDS011;22748;8.426;99.512;2024-03-23T06:07:42;18.48;;;14.75;;
36797;SDS011;22748;8.426;99.512;2024-03-23T06:10:18;18.17;;;14.20;;
36797;SDS011;22748;8.426;99.512;2024-03-23T06:12:46;18.08;;;14.27;;
36797;SDS011;22748;8.426;99.512;2024-03-23T06:15:18;17.02;;;13.60;;
36797;SDS011;22748;8.426;99.512;2024-03-23T06:17:46;16.75;;;14.38;;
36797;SDS011;22748;8.426;99.512;2024-03-23T06:20:16;15.40;;;13.43;;
36797;SDS011;22748;8.426;99.512;2024-03-23T06:22:44;16.25;;;13.15;;
36797;SDS011;22748;8.426;99.512;2024-03-23T06:25:19;15.40;;;12.98;;
36797;SDS011;22748;8.426;99.512;2024-03-23T06:27:47;16.02;;;13.82;;
36797;SDS011;22748;8.426;99.512;2024-03-23T06:30:17;16.40;;;13.80;;
36797;SDS011;22748;8.426;99.512;2024-03-23T06:32:45;17.40;;;13.40;;
36797;SDS011;22748;8.426;99.512;2024-03-23T06:35:15;17.30;;;12.82;;
36797;SDS011;22748;8.426;99.512;2024-03-23T06:37:44;14.20;;;12.70;;
36797;SDS011;22748;8.426;99.512;2024-03-23T06:40:15;17.73;;;13.30;;
36797;SDS011;22748;8.426;99.512;2024-03-23T06:42:44;16.52;;;12.77;;
36797;SDS011;22748;8.426;99.512;2024-03-23T06:45:13;20.05;;;15.10;;
36797;SDS011;22748;8.426;99.512;2024-03-23T06:47:42;15.35;;;13.20;;
36797;SDS011;22748;8.426;99.512;2024-03-23T06:50:12;16.65;;;12.85;;
36797;SDS011;22748;8.426;99.512;2024-03-23T06:52:40;16.33;;;12.63;;
36797;SDS011;22748;8.426;99.512;2024-03-23T06:55:10;21.90;;;12.83;;
36797;SDS011;22748;8.426;99.512;2024-03-23T06:57:41;14.68;;;11.95;;
36797;SDS011;22748;8.426;99.512;2024-03-23T07:00:25;19.25;;;13.65;;
36797;SDS011;22748;8.426;99.512;2024-03-23T07:02:53;14.82;;;12.35;;
36797;SDS011;22748;8.426;99.512;2024-03-23T07:05:24;15.50;;;12.23;;
36797;SDS011;22748;8.426;99.512;2024-03-23T07:07:52;17.60;;;13.10;;
36797;SDS011;22748;8.426;99.512;2024-03-23T07:10:29;18.13;;;15.10;;
36797;SDS011;22748;8.426;99.512;2024-03-23T07:16:00;15.88;;;12.73;;
36797;SDS011;22748;8.426;99.512;2024-03-23T07:18:36;19.48;;;12.23;;
36797;SDS011;22748;8.426;99.512;2024-03-23T07:21:06;15.10;;;12.65;;
36797;SDS011;22748;8.426;99.512;2024-03-23T07:23:36;15.75;;;12.40;;
36797;SDS011;22748;8.426;99.512;2024-03-23T07:26:21;15.55;;;13.90;;
36797;SDS011;22748;8.426;99.512;2024-03-23T07:28:59;16.05;;;12.90;;
36797;SDS011;22748;8.426;99.512;2024-03-23T07:31:38;14.10;;;12.73;;
36797;SDS011;22748;8.426;99.512;2024-03-23T07:34:09;14.07;;;12.48;;
36797;SDS011;22748;8.426;99.512;2024-03-23T07:36:37;15.90;;;12.80;;
36797;SDS011;22748;8.426;99.512;2024-03-23T07:39:07;20.77;;;12.93;;
36797;SDS011;22748;8.426;99.512;2024-03-23T07:41:36;20.50;;;13.55;;
36797;SDS011;22748;8.426;99.512;2024-03-23T07:44:06;14.98;;;12.20;;
36797;SDS011;22748;8.426;99.512;2024-03-23T07:46:47;14.45;;;11.90;;
36797;SDS011;22748;8.426;99.512;2024-03-23T07:52:21;13.95;;;12.27;;
36797;SDS011;22748;8.426;99.512;2024-03-23T07:54:53;21.70;;;12.55;;
36797;SDS011;22748;8.426;99.512;2024-03-23T07:57:22;20.20;;;13.18;;
36797;SDS011;22748;8.426;99.512;2024-03-23T08:00:08;19.75;;;12.02;;
36797;SDS011;22748;8.426;99.512;2024-03-23T08:02:43;19.02;;;13.48;;
36797;SDS011;22748;8.426;99.512;2024-03-23T08:05:13;25.90;;;15.98;;
36797;SDS011;22748;8.426;99.512;2024-03-23T08:07:42;27.55;;;16.33;;
36797;SDS011;22748;8.426;99.512;2024-03-23T08:10:15;22.58;;;15.60;;
36797;SDS011;22748;8.426;99.512;2024-03-23T08:12:46;19.75;;;14.55;;
36797;SDS011;22748;8.426;99.512;2024-03-23T08:15:15;20.38;;;14.95;;
36797;SDS011;22748;8.426;99.512;2024-03-23T08:17:45;21.67;;;15.68;;
36797;SDS011;22748;8.426;99.512;2024-03-23T08:20:14;24.58;;;15.73;;
36797;SDS011;22748;8.426;99.512;2024-03-23T08:22:42;21.45;;;15.32;;
36797;SDS011;22748;8.426;99.512;2024-03-23T08:25:11;19.83;;;16.38;;
36797;SDS011;22748;8.426;99.512;2024-03-23T08:27:38;22.80;;;16.15;;
36797;SDS011;22748;8.426;99.512;2024-03-23T08:30:08;17.17;;;14.95;;
36797;SDS011;22748;8.426;99.512;2024-03-23T08:32:36;18.00;;;14.77;;
36797;SDS011;22748;8.426;99.512;2024-03-23T08:35:07;21.30;;;15.00;;
36797;SDS011;22748;8.426;99.512;2024-03-23T08:37:35;19.48;;;13.85;;
36797;SDS011;22748;8.426;99.512;2024-03-23T08:40:05;15.20;;;12.95;;
36797;SDS011;22748;8.426;99.512;2024-03-23T08:42:33;15.60;;;13.95;;
36797;SDS011;22748;8.426;99.512;2024-03-23T08:45:02;17.95;;;13.80;;
36797;SDS011;22748;8.426;99.512;2024-03-23T08:47:29;23.10;;;14.68;;
36797;SDS011;22748;8.426;99.512;2024-03-23T08:49:59;18.02;;;14.40;;
36797;SDS011;22748;8.426;99.512;2024-03-23T08:52:34;19.02;;;15.00;;
36797;SDS011;22748;8.426;99.512;2024-03-23T08:55:02;17.30;;;14.85;;
36797;SDS011;22748;8.426;99.512;2024-03-23T08:57:31;18.25;;;14.52;;
36797;SDS011;22748;8.426;99.512;2024-03-23T08:59:59;21.30;;;16.25;;
36797;SDS011;22748;8.426;99.512;2024-03-23T09:02:28;16.30;;;14.63;;
36797;SDS011;22748;8.426;99.512;2024-03-23T09:04:56;21.73;;;14.52;;
36797;SDS011;22748;8.426;99.512;2024-03-23T09:07:32;16.10;;;14.25;;
36797;SDS011;22748;8.426;99.512;2024-03-23T09:10:00;15.95;;;13.93;;
36797;SDS011;22748;8.426;99.512;2024-03-23T09:12:29;18.52;;;14.75;;
36797;SDS011;22748;8.426;99.512;2024-03-23T09:14:57;18.75;;;15.73;;
36797;SDS011;22748;8.426;99.512;2024-03-23T09:17:26;19.42;;;15.80;;
36797;SDS011;22748;8.426;99.512;2024-03-23T09:19:54;22.27;;;15.82;;
36797;SDS011;22748;8.426;99.512;2024-03-23T09:22:24;20.25;;;15.23;;
36797;SDS011;22748;8.426;99.512;2024-03-23T09:24:54;19.20;;;15.73;;
36797;SDS011;22748;8.426;99.512;2024-03-23T09:27:24;18.33;;;15.02;;
36797;SDS011;22748;8.426;99.512;2024-03-23T09:29:52;22.08;;;16.38;;
36797;SDS011;22748;8.426;99.512;2024-03-23T09:32:21;19.10;;;17.05;;
36797;SDS011;22748;8.426;99.512;2024-03-23T09:34:49;17.73;;;15.82;;
36797;SDS011;22748;8.426;99.512;2024-03-23T09:37:19;19.60;;;16.63;;
36797;SDS011;22748;8.426;99.512;2024-03-23T09:39:47;17.40;;;15.57;;
36797;SDS011;22748;8.426;99.512;2024-03-23T09:42:23;18.95;;;16.27;;
36797;SDS011;22748;8.426;99.512;2024-03-23T09:44:51;18.15;;;15.68;;
36797;SDS011;22748;8.426;99.512;2024-03-23T09:47:21;18.10;;;16.08;;
36797;SDS011;22748;8.426;99.512;2024-03-23T09:49:48;24.80;;;17.75;;
36797;SDS011;22748;8.426;99.512;2024-03-23T09:52:19;24.98;;;18.23;;
36797;SDS011;22748;8.426;99.512;2024-03-23T09:54:47;20.83;;;17.33;;
36797;SDS011;22748;8.426;99.512;2024-03-23T09:57:16;21.63;;;16.90;;
36797;SDS011;22748;8.426;99.512;2024-03-23T09:59:50;20.92;;;17.33;;
36797;SDS011;22748;8.426;99.512;2024-03-23T10:02:21;26.15;;;17.77;;
36797;SDS011;22748;8.426;99.512;2024-03-23T10:04:50;30.98;;;22.98;;
36797;SDS011;22748;8.426;99.512;2024-03-23T10:07:21;22.40;;;18.15;;
36797;SDS011;22748;8.426;99.512;2024-03-23T10:09:51;35.03;;;20.10;;
36797;SDS011;22748;8.426;99.512;2024-03-23T10:12:19;32.42;;;21.48;;
36797;SDS011;22748;8.426;99.512;2024-03-23T10:14:55;29.00;;;21.57;;
36797;SDS011;22748;8.426;99.512;2024-03-23T10:17:23;27.23;;;20.70;;
36797;SDS011;22748;8.426;99.512;2024-03-23T10:19:55;30.13;;;19.70;;
36797;SDS011;22748;8.426;99.512;2024-03-23T10:22:24;21.35;;;19.00;;
36797;SDS011;22748;8.426;99.512;2024-03-23T10:24:54;32.80;;;19.00;;
36797;SDS011;22748;8.426;99.512;2024-03-23T10:27:34;38.67;;;18.97;;
36797;SDS011;22748;8.426;99.512;2024-03-23T10:30:14;34.40;;;19.60;;
36797;SDS011;22748;8.426;99.512;2024-03-23T10:32:42;27.40;;;20.52;;
36797;SDS011;22748;8.426;99.512;2024-03-23T10:35:15;25.33;;;19.75;;
36797;SDS011;22748;8.426;99.512;2024-03-23T10:37:45;24.10;;;17.88;;
36797;SDS011;22748;8.426;99.512;2024-03-23T10:40:15;24.70;;;19.20;;
36797;SDS011;22748;8.426;99.512;2024-03-23T10:42:44;32.03;;;21.75;;
36797;SDS011;22748;8.426;99.512;2024-03-23T10:45:19;40.85;;;24.83;;
36797;SDS011;22748;8.426;99.512;2024-03-23T10:47:48;38.83;;;25.27;;
36797;SDS011;22748;8.426;99.512;2024-03-23T10:50:18;41.65;;;27.45;;
36797;SDS011;22748;8.426;99.512;2024-03-23T10:52:46;42.55;;;28.95;;
36797;SDS011;22748;8.426;99.512;2024-03-23T10:55:17;42.92;;;29.13;;
36797;SDS011;22748;8.426;99.512;2024-03-23T10:57:48;42.90;;;28.98;;
36797;SDS011;22748;8.426;99.512;2024-03-23T11:00:25;47.63;;;29.00;;
36797;SDS011;22748;8.426;99.512;2024-03-23T11:05:47;40.45;;;27.45;;
36797;SDS011;22748;8.426;99.512;2024-03-23T11:08:30;42.50;;;26.80;;
36797;SDS011;22748;8.426;99.512;2024-03-23T11:11:24;35.15;;;24.63;;
36797;SDS011;22748;8.426;99.512;2024-03-23T11:13:54;31.05;;;21.65;;
36797;SDS011;22748;8.426;99.512;2024-03-23T11:16:46;36.63;;;22.70;;
36797;SDS011;22748;8.426;99.512;2024-03-23T11:19:43;37.67;;;23.20;;
36797;SDS011;22748;8.426;99.512;2024-03-23T11:22:45;38.95;;;24.27;;
36797;SDS011;22748;8.426;99.512;2024-03-23T11:25:20;47.20;;;25.80;;
36797;SDS011;22748;8.426;99.512;2024-03-23T11:27:52;44.15;;;26.15;;
36797;SDS011;22748;8.426;99.512;2024-03-23T11:30:23;41.58;;;25.50;;
36797;SDS011;22748;8.426;99.512;2024-03-23T11:32:59;39.03;;;24.33;;
36797;SDS011;22748;8.426;99.512;2024-03-23T11:35:29;32.70;;;22.33;;
36797;SDS011;22748;8.426;99.512;2024-03-23T11:38:06;38.25;;;24.65;;
36797;SDS011;22748;8.426;99.512;2024-03-23T11:40:37;33.33;;;24.30;;
36797;SDS011;22748;8.426;99.512;2024-03-23T11:43:07;30.30;;;22.83;;
36797;SDS011;22748;8.426;99.512;2024-03-23T11:45:38;26.30;;;20.98;;
36797;SDS011;22748;8.426;99.512;2024-03-23T11:48:15;37.03;;;23.00;;
36797;SDS011;22748;8.426;99.512;2024-03-23T11:51:01;29.17;;;24.05;;
36797;SDS011;22748;8.426;99.512;2024-03-23T11:53:30;28.73;;;24.50;;
36797;SDS011;22748;8.426;99.512;2024-03-23T11:56:01;27.83;;;23.08;;
36797;SDS011;22748;8.426;99.512;2024-03-23T11:58:30;32.03;;;22.52;;
36797;SDS011;22748;8.426;99.512;2024-03-23T12:01:00;36.03;;;23.20;;
36797;SDS011;22748;8.426;99.512;2024-03-23T12:03:35;37.83;;;24.73;;
36797;SDS011;22748;8.426;99.512;2024-03-23T12:06:05;37.30;;;23.08;;
36797;SDS011;22748;8.426;99.512;2024-03-23T12:08:34;29.08;;;19.55;;
36797;SDS011;22748;8.426;99.512;2024-03-23T12:13:32;23.27;;;19.02;;
36797;SDS011;22748;8.426;99.512;2024-03-23T12:16:11;28.38;;;19.02;;
36797;SDS011;22748;8.426;99.512;2024-03-23T12:18:46;30.02;;;17.75;;
36797;SDS011;22748;8.426;99.512;2024-03-23T12:21:26;31.73;;;18.25;;
36797;SDS011;22748;8.426;99.512;2024-03-23T12:24:14;32.28;;;16.92;;
36797;SDS011;22748;8.426;99.512;2024-03-23T12:26:44;25.57;;;17.23;;
36797;SDS011;22748;8.426;99.512;2024-03-23T12:29:14;21.42;;;16.02;;
36797;SDS011;22748;8.426;99.512;2024-03-23T12:31:44;19.98;;;16.85;;
36797;SDS011;22748;8.426;99.512;2024-03-23T12:34:15;26.25;;;18.90;;
36797;SDS011;22748;8.426;99.512;2024-03-23T12:36:45;26.00;;;18.33;;
36797;SDS011;22748;8.426;99.512;2024-03-23T12:39:13;27.00;;;19.65;;
36797;SDS011;22748;8.426;99.512;2024-03-23T12:41:43;20.93;;;18.70;;
36797;SDS011;22748;8.426;99.512;2024-03-23T12:44:11;21.20;;;18.75;;
36797;SDS011;22748;8.426;99.512;2024-03-23T12:46:41;26.17;;;19.98;;
36797;SDS011;22748;8.426;99.512;2024-03-23T12:49:10;27.85;;;21.48;;
36797;SDS011;22748;8.426;99.512;2024-03-23T12:51:47;34.88;;;23.00;;
36797;SDS011;22748;8.426;99.512;2024-03-23T12:54:16;30.17;;;22.45;;
36797;SDS011;22748;8.426;99.512;2024-03-23T12:56:46;30.83;;;22.65;;
36797;SDS011;22748;8.426;99.512;2024-03-23T12:59:14;35.58;;;25.17;;
36797;SDS011;22748;8.426;99.512;2024-03-23T13:01:44;36.08;;;27.45;;
36797;SDS011;22748;8.426;99.512;2024-03-23T13:04:13;33.47;;;26.70;;
36797;SDS011;22748;8.426;99.512;2024-03-23T13:06:49;38.17;;;26.90;;
36797;SDS011;22748;8.426;99.512;2024-03-23T13:09:18;39.67;;;27.10;;
36797;SDS011;22748;8.426;99.512;2024-03-23T13:11:47;35.35;;;26.27;;
36797;SDS011;22748;8.426;99.512;2024-03-23T13:14:15;32.45;;;24.85;;
36797;SDS011;22748;8.426;99.512;2024-03-23T13:16:45;32.90;;;25.17;;
36797;SDS011;22748;8.426;99.512;2024-03-23T13:19:13;36.30;;;24.50;;
36797;SDS011;22748;8.426;99.512;2024-03-23T13:21:48;34.00;;;25.80;;
36797;SDS011;22748;8.426;99.512;2024-03-23T13:24:16;36.72;;;25.63;;
36797;SDS011;22748;8.426;99.512;2024-03-23T13:26:46;40.35;;;26.02;;
36797;SDS011;22748;8.426;99.512;2024-03-23T13:29:15;35.72;;;25.75;;
36797;SDS011;22748;8.426;99.512;2024-03-23T13:31:45;41.63;;;27.17;;
36797;SDS011;22748;8.426;99.512;2024-03-23T13:34:13;44.33;;;27.15;;
36797;SDS011;22748;8.426;99.512;2024-03-23T13:36:50;41.97;;;26.48;;
36797;SDS011;22748;8.426;99.512;2024-03-23T13:39:18;40.35;;;26.35;;
36797;SDS011;22748;8.426;99.512;2024-03-23T13:41:48;34.05;;;25.63;;
36797;SDS011;22748;8.426;99.512;2024-03-23T13:44:16;38.03;;;26.33;;
36797;SDS011;22748;8.426;99.512;2024-03-23T13:46:45;40.85;;;26.33;;
36797;SDS011;22748;8.426;99.512;2024-03-23T13:49:18;42.17;;;26.35;;
36797;SDS011;22748;8.426;99.512;2024-03-23T13:51:56;32.53;;;25.13;;
36797;SDS011;22748;8.426;99.512;2024-03-23T13:54:25;34.38;;;25.40;;
36797;SDS011;22748;8.426;99.512;2024-03-23T13:56:55;38.33;;;25.83;;
36797;SDS011;22748;8.426;99.512;2024-03-23T13:59:24;37.20;;;26.52;;
36797;SDS011;22748;8.426;99.512;2024-03-23T14:01:54;33.30;;;26.25;;
36797;SDS011;22748;8.426;99.512;2024-03-23T14:04:22;31.83;;;25.80;;
36797;SDS011;22748;8.426;99.512;2024-03-23T14:06:51;34.97;;;25.42;;
36797;SDS011;22748;8.426;99.512;2024-03-23T14:09:25;32.38;;;25.88;;
36797;SDS011;22748;8.426;99.512;2024-03-23T14:11:56;31.48;;;25.00;;
36797;SDS011;22748;8.426;99.512;2024-03-23T14:14:24;34.35;;;25.02;;
36797;SDS011;22748;8.426;99.512;2024-03-23T14:16:53;32.85;;;24.25;;
36797;SDS011;22748;8.426;99.512;2024-03-23T14:19:21;35.38;;;25.80;;
36797;SDS011;22748;8.426;99.512;2024-03-23T14:21:51;45.55;;;33.25;;
36797;SDS011;22748;8.426;99.512;2024-03-23T14:24:19;63.85;;;46.38;;
36797;SDS011;22748;8.426;99.512;2024-03-23T14:26:55;82.53;;;61.70;;
36797;SDS011;22748;8.426;99.512;2024-03-23T14:29:23;78.55;;;55.28;;
36797;SDS011;22748;8.426;99.512;2024-03-23T14:31:53;64.75;;;49.38;;
36797;SDS011;22748;8.426;99.512;2024-03-23T14:34:20;58.03;;;42.25;;
36797;SDS011;22748;8.426;99.512;2024-03-23T14:36:50;53.75;;;39.38;;
36797;SDS011;22748;8.426;99.512;2024-03-23T14:39:19;49.63;;;38.17;;
36797;SDS011;22748;8.426;99.512;2024-03-23T14:41:55;50.30;;;37.08;;
36797;SDS011;22748;8.426;99.512;2024-03-23T14:44:24;50.63;;;35.63;;
36797;SDS011;22748;8.426;99.512;2024-03-23T14:47:02;50.63;;;35.58;;
36797;SDS011;22748;8.426;99.512;2024-03-23T14:49:31;47.30;;;33.65;;
36797;SDS011;22748;8.426;99.512;2024-03-23T14:52:01;43.85;;;32.72;;
36797;SDS011;22748;8.426;99.512;2024-03-23T14:54:29;43.72;;;32.47;;
36797;SDS011;22748;8.426;99.512;2024-03-23T14:57:01;39.22;;;31.50;;
36797;SDS011;22748;8.426;99.512;2024-03-23T14:59:29;46.25;;;33.40;;
36797;SDS011;22748;8.426;99.512;2024-03-23T15:01:59;42.50;;;30.95;;
36797;SDS011;22748;8.426;99.512;2024-03-23T15:04:27;39.75;;;28.33;;
36797;SDS011;22748;8.426;99.512;2024-03-23T15:06:56;36.00;;;29.08;;
36797;SDS011;22748;8.426;99.512;2024-03-23T15:09:26;32.75;;;26.33;;
36797;SDS011;22748;8.426;99.512;2024-03-23T15:11:56;35.30;;;27.13;;
36797;SDS011;22748;8.426;99.512;2024-03-23T15:14:26;32.85;;;26.38;;
36797;SDS011;22748;8.426;99.512;2024-03-23T15:16:56;33.97;;;25.95;;
36797;SDS011;22748;8.426;99.512;2024-03-23T15:19:25;30.98;;;27.20;;
36797;SDS011;22748;8.426;99.512;2024-03-23T15:21:55;33.53;;;26.63;;
36797;SDS011;22748;8.426;99.512;2024-03-23T15:24:24;34.17;;;28.08;;
36797;SDS011;22748;8.426;99.512;2024-03-23T15:26:54;37.55;;;29.25;;
36797;SDS011;22748;8.426;99.512;2024-03-23T15:29:22;40.03;;;29.27;;
36797;SDS011;22748;8.426;99.512;2024-03-23T15:31:58;39.33;;;29.52;;
36797;SDS011;22748;8.426;99.512;2024-03-23T15:34:27;32.55;;;27.77;;
36797;SDS011;22748;8.426;99.512;2024-03-23T15:36:57;34.63;;;27.45;;
36797;SDS011;22748;8.426;99.512;2024-03-23T15:39:25;34.22;;;27.70;;
36797;SDS011;22748;8.426;99.512;2024-03-23T15:41:55;30.35;;;24.38;;
36797;SDS011;22748;8.426;99.512;2024-03-23T15:44:23;32.63;;;25.83;;
36797;SDS011;22748;8.426;99.512;2024-03-23T15:49:41;34.83;;;25.92;;
36797;SDS011;22748;8.426;99.512;2024-03-23T15:52:11;33.88;;;27.20;;
36797;SDS011;22748;8.426;99.512;2024-03-23T15:54:39;36.60;;;27.55;;
36797;SDS011;22748;8.426;99.512;2024-03-23T15:57:08;34.78;;;27.75;;
36797;SDS011;22748;8.426;99.512;2024-03-23T15:59:39;31.60;;;27.63;;
36797;SDS011;22748;8.426;99.512;2024-03-23T16:02:09;35.08;;;28.00;;
36797;SDS011;22748;8.426;99.512;2024-03-23T16:04:43;35.78;;;27.73;;